Terminal Aerodrome Forecast
Issued by NWS

Home | Current Version | Previous Version | Text Only | Print | Product List | Glossary On
Versions: 1 2 3 4 5 6 7 8 9 10 11 12 13 14 15 16 17 18 19 20 21 22
000
FTUS46 KLOX 022354
TAFLGB
TAF
KLGB 022354Z 0300/0324 19006KT P6SM FEW020 FEW060
     FM030200 29008KT P6SM SCT015
     FM030500 VRB06KT P6SM BKN014
     FM030900 14004KT P6SM OVC017
     FM031400 VRB03KT P6SM BKN022
     FM031800 19008KT P6SM SCT027
     FM032000 26012KT P6SM FEW027=

USA.gov is the U.S. government's official web portal to all federal, state and local government web resources and services.